sensor_id;sensor_type;location;lat;lon;timestamp;pressure;altitude;pressure_sealevel;temperature;humidity
55277;BME280;41136;51.478;-2.610;2023-04-06T00:00:09;100586.89;;;12.62;100.00
55277;BME280;41136;51.478;-2.610;2023-04-06T00:02:33;100582.91;;;12.87;100.00
55277;BME280;41136;51.478;-2.610;2023-04-06T00:04:58;100583.48;;;13.24;100.00
55277;BME280;41136;51.478;-2.610;2023-04-06T00:07:24;100589.76;;;12.20;100.00
55277;BME280;41136;51.478;-2.610;2023-04-06T00:09:49;100585.98;;;13.24;100.00
55277;BME280;41136;51.478;-2.610;2023-04-06T00:12:14;100586.21;;;13.22;100.00
55277;BME280;41136;51.478;-2.610;2023-04-06T00:14:40;100582.81;;;12.96;100.00
55277;BME280;41136;51.478;-2.610;2023-04-06T00:17:05;100579.85;;;12.32;100.00
55277;BME280;41136;51.478;-2.610;2023-04-06T00:19:30;100573.02;;;12.52;100.00
55277;BME280;41136;51.478;-2.610;2023-04-06T00:21:56;100572.83;;;12.32;100.00
55277;BME280;41136;51.478;-2.610;2023-04-06T00:24:21;100570.38;;;12.33;100.00
55277;BME280;41136;51.478;-2.610;2023-04-06T00:26:46;100565.95;;;12.45;100.00
55277;BME280;41136;51.478;-2.610;2023-04-06T00:29:12;100565.82;;;12.60;100.00
55277;BME280;41136;51.478;-2.610;2023-04-06T00:31:37;100562.30;;;12.95;100.00
55277;BME280;41136;51.478;-2.610;2023-04-06T00:34:02;100562.50;;;12.66;100.00
55277;BME280;41136;51.478;-2.610;2023-04-06T00:36:28;100559.04;;;13.16;100.00
55277;BME280;41136;51.478;-2.610;2023-04-06T00:38:53;100551.21;;;13.02;100.00
55277;BME280;41136;51.478;-2.610;2023-04-06T00:41:18;100553.76;;;12.82;100.00
55277;BME280;41136;51.478;-2.610;2023-04-06T00:43:44;100551.14;;;12.98;100.00
55277;BME280;41136;51.478;-2.610;2023-04-06T00:46:09;100549.29;;;12.91;100.00
55277;BME280;41136;51.478;-2.610;2023-04-06T00:48:34;100548.58;;;12.27;100.00
55277;BME280;41136;51.478;-2.610;2023-04-06T00:51:00;100546.03;;;12.38;100.00
55277;BME280;41136;51.478;-2.610;2023-04-06T00:53:25;100541.59;;;12.55;100.00
55277;BME280;41136;51.478;-2.610;2023-04-06T00:55:51;100539.98;;;12.40;100.00
55277;BME280;41136;51.478;-2.610;2023-04-06T00:58:16;100536.89;;;12.33;100.00
55277;BME280;41136;51.478;-2.610;2023-04-06T01:00:41;100533.36;;;12.85;100.00
55277;BME280;41136;51.478;-2.610;2023-04-06T01:03:07;100528.32;;;13.53;100.00
55277;BME280;41136;51.478;-2.610;2023-04-06T01:12:26;100508.75;;;12.99;100.00
55277;BME280;41136;51.478;-2.610;2023-04-06T01:14:52;100509.50;;;12.59;100.00
55277;BME280;41136;51.478;-2.610;2023-04-06T01:17:17;100506.65;;;12.72;100.00
55277;BME280;41136;51.478;-2.610;2023-04-06T01:19:42;100506.12;;;12.59;100.00
55277;BME280;41136;51.478;-2.610;2023-04-06T01:22:08;100503.66;;;13.23;100.00
55277;BME280;41136;51.478;-2.610;2023-04-06T01:24:33;100499.30;;;13.00;100.00
55277;BME280;41136;51.478;-2.610;2023-04-06T01:26:58;100497.99;;;12.73;100.00
55277;BME280;41136;51.478;-2.610;2023-04-06T01:29:24;100496.19;;;12.20;100.00
55277;BME280;41136;51.478;-2.610;2023-04-06T01:31:49;100498.92;;;12.82;100.00
55277;BME280;41136;51.478;-2.610;2023-04-06T01:34:14;100500.29;;;11.98;100.00
55277;BME280;41136;51.478;-2.610;2023-04-06T01:36:39;100499.08;;;12.43;100.00
55277;BME280;41136;51.478;-2.610;2023-04-06T01:39:05;100495.28;;;12.57;100.00
55277;BME280;41136;51.478;-2.610;2023-04-06T01:41:30;100492.74;;;12.25;100.00
55277;BME280;41136;51.478;-2.610;2023-04-06T01:43:55;100496.59;;;11.92;100.00
55277;BME280;41136;51.478;-2.610;2023-04-06T01:46:21;100487.35;;;12.72;100.00
55277;BME280;41136;51.478;-2.610;2023-04-06T01:48:46;100487.52;;;12.10;100.00
55277;BME280;41136;51.478;-2.610;2023-04-06T01:51:12;100484.34;;;12.03;100.00
55277;BME280;41136;51.478;-2.610;2023-04-06T01:53:37;100487.82;;;11.88;100.00
55277;BME280;41136;51.478;-2.610;2023-04-06T01:56:03;100484.43;;;11.64;100.00
55277;BME280;41136;51.478;-2.610;2023-04-06T01:58:27;100477.42;;;11.83;100.00
55277;BME280;41136;51.478;-2.610;2023-04-06T02:00:53;100480.06;;;11.88;100.00
55277;BME280;41136;51.478;-2.610;2023-04-06T02:03:18;100478.72;;;11.66;100.00
55277;BME280;41136;51.478;-2.610;2023-04-06T02:05:44;100477.48;;;11.48;100.00
55277;BME280;41136;51.478;-2.610;2023-04-06T02:08:09;100476.30;;;11.47;100.00
55277;BME280;41136;51.478;-2.610;2023-04-06T02:10:35;100480.87;;;11.22;100.00
55277;BME280;41136;51.478;-2.610;2023-04-06T02:13:01;100480.15;;;11.06;100.00
55277;BME280;41136;51.478;-2.610;2023-04-06T02:15:26;100480.71;;;10.51;100.00
55277;BME280;41136;51.478;-2.610;2023-04-06T02:17:51;100482.33;;;9.65;100.00
55277;BME280;41136;51.478;-2.610;2023-04-06T02:20:16;100477.02;;;10.18;100.00
55277;BME280;41136;51.478;-2.610;2023-04-06T02:22:41;100478.84;;;8.65;100.00
55277;BME280;41136;51.478;-2.610;2023-04-06T02:25:07;100480.56;;;9.27;100.00
55277;BME280;41136;51.478;-2.610;2023-04-06T02:27:32;100477.15;;;9.03;100.00
55277;BME280;41136;51.478;-2.610;2023-04-06T02:29:58;100476.27;;;9.56;100.00
55277;BME280;41136;51.478;-2.610;2023-04-06T02:32:23;100471.63;;;9.40;100.00
55277;BME280;41136;51.478;-2.610;2023-04-06T02:34:48;100465.76;;;9.54;100.00
55277;BME280;41136;51.478;-2.610;2023-04-06T02:37:14;100459.72;;;9.67;100.00
55277;BME280;41136;51.478;-2.610;2023-04-06T02:39:39;100454.27;;;10.05;100.00
55277;BME280;41136;51.478;-2.610;2023-04-06T02:42:04;100455.90;;;9.17;100.00
55277;BME280;41136;51.478;-2.610;2023-04-06T02:44:30;100450.12;;;9.30;100.00
55277;BME280;41136;51.478;-2.610;2023-04-06T02:46:55;100449.27;;;9.16;100.00
55277;BME280;41136;51.478;-2.610;2023-04-06T02:49:20;100439.64;;;9.33;100.00
55277;BME280;41136;51.478;-2.610;2023-04-06T02:51:46;100437.28;;;9.31;100.00
55277;BME280;41136;51.478;-2.610;2023-04-06T02:54:11;100430.57;;;9.53;100.00
55277;BME280;41136;51.478;-2.610;2023-04-06T02:56:36;100425.46;;;9.45;100.00
55277;BME280;41136;51.478;-2.610;2023-04-06T02:59:02;100414.75;;;9.54;100.00
55277;BME280;41136;51.478;-2.610;2023-04-06T03:01:27;100414.01;;;9.67;100.00
55277;BME280;41136;51.478;-2.610;2023-04-06T03:03:52;100408.66;;;9.09;100.00
55277;BME280;41136;51.478;-2.610;2023-04-06T03:06:18;100403.97;;;10.04;100.00
55277;BME280;41136;51.478;-2.610;2023-04-06T03:08:43;100391.47;;;10.17;100.00
55277;BME280;41136;51.478;-2.610;2023-04-06T03:11:09;100393.50;;;10.60;100.00
55277;BME280;41136;51.478;-2.610;2023-04-06T03:13:34;100392.65;;;10.29;100.00
55277;BME280;41136;51.478;-2.610;2023-04-06T03:15:59;100388.96;;;10.71;100.00
55277;BME280;41136;51.478;-2.610;2023-04-06T03:18:25;100381.18;;;10.44;100.00
55277;BME280;41136;51.478;-2.610;2023-04-06T03:20:50;100382.27;;;10.81;100.00
55277;BME280;41136;51.478;-2.610;2023-04-06T03:23:15;100378.67;;;10.89;100.00
55277;BME280;41136;51.478;-2.610;2023-04-06T03:25:41;100375.52;;;11.07;100.00
55277;BME280;41136;51.478;-2.610;2023-04-06T03:28:06;100369.97;;;10.90;100.00
55277;BME280;41136;51.478;-2.610;2023-04-06T03:30:31;100369.53;;;10.29;100.00
55277;BME280;41136;51.478;-2.610;2023-04-06T03:32:57;100383.95;;;10.64;100.00
55277;BME280;41136;51.478;-2.610;2023-04-06T03:35:22;100398.80;;;10.22;100.00
55277;BME280;41136;51.478;-2.610;2023-04-06T03:37:47;100395.87;;;10.51;100.00
55277;BME280;41136;51.478;-2.610;2023-04-06T03:40:13;100395.07;;;10.34;100.00
55277;BME280;41136;51.478;-2.610;2023-04-06T03:42:38;100400.00;;;11.14;100.00
55277;BME280;41136;51.478;-2.610;2023-04-06T03:45:04;100407.51;;;10.41;100.00
55277;BME280;41136;51.478;-2.610;2023-04-06T03:47:29;100408.22;;;9.83;100.00
55277;BME280;41136;51.478;-2.610;2023-04-06T03:49:54;100411.75;;;9.57;100.00
55277;BME280;41136;51.478;-2.610;2023-04-06T03:52:20;100407.97;;;9.20;100.00
55277;BME280;41136;51.478;-2.610;2023-04-06T03:54:45;100407.13;;;8.91;100.00
55277;BME280;41136;51.478;-2.610;2023-04-06T03:57:10;100399.59;;;9.06;100.00
55277;BME280;41136;51.478;-2.610;2023-04-06T03:59:35;100400.56;;;9.06;100.00
55277;BME280;41136;51.478;-2.610;2023-04-06T04:02:01;100398.05;;;9.45;100.00
55277;BME280;41136;51.478;-2.610;2023-04-06T04:04:26;100395.74;;;10.08;100.00
55277;BME280;41136;51.478;-2.610;2023-04-06T04:06:51;100399.58;;;10.04;100.00
55277;BME280;41136;51.478;-2.610;2023-04-06T04:09:16;100396.61;;;10.68;100.00
55277;BME280;41136;51.478;-2.610;2023-04-06T04:11:42;100395.54;;;10.31;100.00
55277;BME280;41136;51.478;-2.610;2023-04-06T04:23:34;100387.10;;;10.46;100.00
55277;BME280;41136;51.478;-2.610;2023-04-06T04:26:00;100388.14;;;10.12;100.00
55277;BME280;41136;51.478;-2.610;2023-04-06T04:28:25;100379.64;;;9.93;100.00
55277;BME280;41136;51.478;-2.610;2023-04-06T04:30:50;100373.47;;;10.24;100.00
55277;BME280;41136;51.478;-2.610;2023-04-06T04:33:16;100368.23;;;11.06;100.00
55277;BME280;41136;51.478;-2.610;2023-04-06T04:35:41;100367.80;;;10.62;100.00
55277;BME280;41136;51.478;-2.610;2023-04-06T04:38:07;100359.12;;;10.46;100.00
55277;BME280;41136;51.478;-2.610;2023-04-06T04:40:32;100360.73;;;10.98;100.00
55277;BME280;41136;51.478;-2.610;2023-04-06T04:42:58;100358.82;;;10.56;100.00
55277;BME280;41136;51.478;-2.610;2023-04-06T04:45:23;100360.16;;;10.25;100.00
55277;BME280;41136;51.478;-2.610;2023-04-06T04:47:48;100357.16;;;10.28;100.00
55277;BME280;41136;51.478;-2.610;2023-04-06T04:50:13;100362.48;;;9.92;100.00
55277;BME280;41136;51.478;-2.610;2023-04-06T04:52:39;100364.68;;;9.94;100.00
55277;BME280;41136;51.478;-2.610;2023-04-06T04:55:05;100365.42;;;10.25;100.00
55277;BME280;41136;51.478;-2.610;2023-04-06T04:57:29;100366.99;;;10.97;100.00
55277;BME280;41136;51.478;-2.610;2023-04-06T04:59:55;100362.65;;;10.18;100.00
55277;BME280;41136;51.478;-2.610;2023-04-06T05:02:20;100358.57;;;11.02;100.00
55277;BME280;41136;51.478;-2.610;2023-04-06T05:04:45;100364.96;;;10.67;100.00
55277;BME280;41136;51.478;-2.610;2023-04-06T05:07:11;100368.29;;;10.58;100.00
55277;BME280;41136;51.478;-2.610;2023-04-06T05:09:36;100365.11;;;10.29;100.00
55277;BME280;41136;51.478;-2.610;2023-04-06T05:12:02;100370.40;;;10.57;100.00
55277;BME280;41136;51.478;-2.610;2023-04-06T05:14:27;100369.37;;;10.62;100.00
55277;BME280;41136;51.478;-2.610;2023-04-06T05:16:52;100375.14;;;10.28;100.00
55277;BME280;41136;51.478;-2.610;2023-04-06T05:19:17;100384.34;;;9.91;100.00
55277;BME280;41136;51.478;-2.610;2023-04-06T05:21:42;100374.55;;;10.44;100.00
55277;BME280;41136;51.478;-2.610;2023-04-06T05:24:08;100373.26;;;10.16;100.00
55277;BME280;41136;51.478;-2.610;2023-04-06T05:26:33;100373.38;;;10.42;100.00
55277;BME280;41136;51.478;-2.610;2023-04-06T05:28:58;100374.45;;;10.11;100.00
55277;BME280;41136;51.478;-2.610;2023-04-06T05:31:23;100376.16;;;10.25;100.00
55277;BME280;41136;51.478;-2.610;2023-04-06T05:33:49;100380.39;;;9.93;100.00
55277;BME280;41136;51.478;-2.610;2023-04-06T05:36:14;100380.51;;;9.95;100.00
55277;BME280;41136;51.478;-2.610;2023-04-06T05:38:39;100380.70;;;10.38;100.00
55277;BME280;41136;51.478;-2.610;2023-04-06T05:41:05;100382.09;;;10.48;100.00
55277;BME280;41136;51.478;-2.610;2023-04-06T05:43:30;100400.85;;;9.84;100.00
55277;BME280;41136;51.478;-2.610;2023-04-06T05:45:55;100407.32;;;10.20;100.00
55277;BME280;41136;51.478;-2.610;2023-04-06T05:48:21;100410.97;;;10.06;100.00
55277;BME280;41136;51.478;-2.610;2023-04-06T05:50:48;100415.00;;;10.14;100.00
55277;BME280;41136;51.478;-2.610;2023-04-06T05:53:11;100418.95;;;10.33;100.00
55277;BME280;41136;51.478;-2.610;2023-04-06T05:55:36;100420.50;;;10.13;100.00
55277;BME280;41136;51.478;-2.610;2023-04-06T05:58:02;100421.83;;;10.07;100.00
55277;BME280;41136;51.478;-2.610;2023-04-06T06:00:27;100424.17;;;9.98;100.00
55277;BME280;41136;51.478;-2.610;2023-04-06T06:02:52;100422.40;;;9.70;100.00
55277;BME280;41136;51.478;-2.610;2023-04-06T06:05:17;100425.94;;;9.28;100.00
55277;BME280;41136;51.478;-2.610;2023-04-06T06:07:43;100420.03;;;9.84;100.00
55277;BME280;41136;51.478;-2.610;2023-04-06T06:10:09;100425.53;;;9.27;100.00
55277;BME280;41136;51.478;-2.610;2023-04-06T06:12:34;100428.65;;;9.49;100.00
55277;BME280;41136;51.478;-2.610;2023-04-06T06:14:59;100426.58;;;9.77;100.00
55277;BME280;41136;51.478;-2.610;2023-04-06T06:17:25;100432.05;;;9.37;100.00
55277;BME280;41136;51.478;-2.610;2023-04-06T06:19:50;100435.55;;;9.55;100.00
55277;BME280;41136;51.478;-2.610;2023-04-06T06:22:15;100435.52;;;9.65;100.00
55277;BME280;41136;51.478;-2.610;2023-04-06T06:24:40;100438.11;;;10.10;100.00
55277;BME280;41136;51.478;-2.610;2023-04-06T06:27:05;100445.66;;;9.98;100.00
55277;BME280;41136;51.478;-2.610;2023-04-06T06:29:30;100449.74;;;10.11;100.00
55277;BME280;41136;51.478;-2.610;2023-04-06T06:31:55;100450.09;;;10.14;100.00
55277;BME280;41136;51.478;-2.610;2023-04-06T06:34:21;100452.89;;;10.75;100.00
55277;BME280;41136;51.478;-2.610;2023-04-06T06:36:46;100456.58;;;10.01;100.00
55277;BME280;41136;51.478;-2.610;2023-04-06T06:39:12;100464.93;;;10.38;100.00
55277;BME280;41136;51.478;-2.610;2023-04-06T06:41:37;100466.54;;;10.10;100.00
55277;BME280;41136;51.478;-2.610;2023-04-06T06:44:02;100464.08;;;9.89;100.00
55277;BME280;41136;51.478;-2.610;2023-04-06T06:46:27;100463.21;;;9.98;100.00
55277;BME280;41136;51.478;-2.610;2023-04-06T06:48:52;100466.20;;;10.29;100.00
55277;BME280;41136;51.478;-2.610;2023-04-06T06:51:17;100472.41;;;10.56;100.00
55277;BME280;41136;51.478;-2.610;2023-04-06T06:53:43;100473.89;;;10.67;100.00
55277;BME280;41136;51.478;-2.610;2023-04-06T06:56:08;100472.51;;;9.96;100.00
55277;BME280;41136;51.478;-2.610;2023-04-06T06:58:34;100468.81;;;10.92;100.00
55277;BME280;41136;51.478;-2.610;2023-04-06T07:01:00;100476.42;;;10.56;100.00
55277;BME280;41136;51.478;-2.610;2023-04-06T07:03:25;100477.35;;;10.24;100.00
55277;BME280;41136;51.478;-2.610;2023-04-06T07:05:51;100480.37;;;10.38;100.00
55277;BME280;41136;51.478;-2.610;2023-04-06T07:08:16;100480.22;;;10.10;100.00
55277;BME280;41136;51.478;-2.610;2023-04-06T07:10:41;100483.43;;;10.42;100.00
55277;BME280;41136;51.478;-2.610;2023-04-06T07:13:06;100483.95;;;10.03;100.00
55277;BME280;41136;51.478;-2.610;2023-04-06T07:15:32;100483.79;;;10.34;100.00
55277;BME280;41136;51.478;-2.610;2023-04-06T07:17:57;100482.60;;;10.43;100.00
55277;BME280;41136;51.478;-2.610;2023-04-06T07:20:22;100484.94;;;10.56;100.00
55277;BME280;41136;51.478;-2.610;2023-04-06T07:22:47;100485.11;;;10.68;100.00
55277;BME280;41136;51.478;-2.610;2023-04-06T07:25:12;100484.25;;;10.27;100.00
55277;BME280;41136;51.478;-2.610;2023-04-06T07:27:38;100485.51;;;10.82;100.00
55277;BME280;41136;51.478;-2.610;2023-04-06T07:30:03;100484.70;;;10.88;100.00
55277;BME280;41136;51.478;-2.610;2023-04-06T07:32:28;100488.59;;;11.16;100.00
55277;BME280;41136;51.478;-2.610;2023-04-06T07:34:53;100493.34;;;10.95;100.00
55277;BME280;41136;51.478;-2.610;2023-04-06T07:37:18;100493.15;;;10.84;100.00
55277;BME280;41136;51.478;-2.610;2023-04-06T07:39:44;100496.24;;;10.46;100.00
55277;BME280;41136;51.478;-2.610;2023-04-06T07:42:09;100501.33;;;10.49;100.00
55277;BME280;41136;51.478;-2.610;2023-04-06T07:44:35;100500.53;;;11.08;100.00
55277;BME280;41136;51.478;-2.610;2023-04-06T07:47:00;100502.93;;;11.52;100.00
55277;BME280;41136;51.478;-2.610;2023-04-06T07:49:25;100506.47;;;11.05;100.00
55277;BME280;41136;51.478;-2.610;2023-04-06T07:51:51;100504.72;;;11.41;100.00
55277;BME280;41136;51.478;-2.610;2023-04-06T07:54:16;100498.79;;;11.51;100.00
55277;BME280;41136;51.478;-2.610;2023-04-06T07:56:41;100501.54;;;11.56;100.00
55277;BME280;41136;51.478;-2.610;2023-04-06T07:59:07;100503.51;;;11.37;100.00
55277;BME280;41136;51.478;-2.610;2023-04-06T08:01:32;100501.09;;;10.94;100.00
55277;BME280;41136;51.478;-2.610;2023-04-06T08:03:57;100502.18;;;11.05;100.00
55277;BME280;41136;51.478;-2.610;2023-04-06T08:06:23;100498.62;;;11.17;100.00
55277;BME280;41136;51.478;-2.610;2023-04-06T08:08:48;100506.30;;;10.52;100.00
55277;BME280;41136;51.478;-2.610;2023-04-06T08:11:13;100506.82;;;10.69;100.00
55277;BME280;41136;51.478;-2.610;2023-04-06T08:13:38;100508.97;;;10.39;100.00
55277;BME280;41136;51.478;-2.610;2023-04-06T08:16:05;100512.23;;;10.79;100.00
55277;BME280;41136;51.478;-2.610;2023-04-06T08:18:29;100509.82;;;11.31;100.00
55277;BME280;41136;51.478;-2.610;2023-04-06T08:20:55;100513.78;;;11.14;100.00
55277;BME280;41136;51.478;-2.610;2023-04-06T08:23:20;100516.11;;;11.13;100.00
55277;BME280;41136;51.478;-2.610;2023-04-06T08:25:46;100521.54;;;11.72;100.00
55277;BME280;41136;51.478;-2.610;2023-04-06T08:28:11;100524.26;;;11.25;100.00
55277;BME280;41136;51.478;-2.610;2023-04-06T08:30:39;100523.19;;;11.23;100.00
55277;BME280;41136;51.478;-2.610;2023-04-06T08:33:02;100527.17;;;10.73;100.00
55277;BME280;41136;51.478;-2.610;2023-04-06T08:35:27;100529.05;;;11.32;100.00
55277;BME280;41136;51.478;-2.610;2023-04-06T08:37:52;100528.30;;;11.34;100.00
55277;BME280;41136;51.478;-2.610;2023-04-06T08:40:17;100526.96;;;11.21;100.00
55277;BME280;41136;51.478;-2.610;2023-04-06T08:42:48;100532.84;;;11.59;100.00
55277;BME280;41136;51.478;-2.610;2023-04-06T08:45:09;100530.45;;;11.84;100.00
55277;BME280;41136;51.478;-2.610;2023-04-06T08:47:34;100531.00;;;11.63;100.00
55277;BME280;41136;51.478;-2.610;2023-04-06T08:50:03;100533.20;;;11.00;100.00
55277;BME280;41136;51.478;-2.610;2023-04-06T08:52:25;100532.71;;;11.61;100.00
55277;BME280;41136;51.478;-2.610;2023-04-06T08:54:50;100531.67;;;12.14;100.00
55277;BME280;41136;51.478;-2.610;2023-04-06T08:57:15;100534.03;;;11.88;100.00
55277;BME280;41136;51.478;-2.610;2023-04-06T08:59:41;100533.26;;;11.92;100.00
55277;BME280;41136;51.478;-2.610;2023-04-06T09:02:06;100533.93;;;11.97;100.00
55277;BME280;41136;51.478;-2.610;2023-04-06T09:04:33;100538.42;;;11.88;100.00
55277;BME280;41136;51.478;-2.610;2023-04-06T09:06:56;100539.25;;;12.23;100.00
55277;BME280;41136;51.478;-2.610;2023-04-06T09:09:22;100542.41;;;12.30;100.00
55277;BME280;41136;51.478;-2.610;2023-04-06T09:11:48;100540.98;;;12.23;100.00
55277;BME280;41136;51.478;-2.610;2023-04-06T09:14:12;100543.31;;;12.51;100.00
55277;BME280;41136;51.478;-2.610;2023-04-06T09:16:39;100542.31;;;12.57;100.00
55277;BME280;41136;51.478;-2.610;2023-04-06T09:19:04;100538.35;;;12.43;100.00
55277;BME280;41136;51.478;-2.610;2023-04-06T09:21:28;100539.50;;;12.38;100.00
55277;BME280;41136;51.478;-2.610;2023-04-06T09:23:59;100541.50;;;11.74;100.00
55277;BME280;41136;51.478;-2.610;2023-04-06T09:26:19;100539.06;;;11.74;100.00
55277;BME280;41136;51.478;-2.610;2023-04-06T09:28:46;100542.03;;;11.89;100.00
55277;BME280;41136;51.478;-2.610;2023-04-06T09:31:10;100547.49;;;10.89;100.00
55277;BME280;41136;51.478;-2.610;2023-04-06T09:33:37;100543.46;;;11.82;100.00
55277;BME280;41136;51.478;-2.610;2023-04-06T09:36:01;100544.55;;;11.74;100.00
55277;BME280;41136;51.478;-2.610;2023-04-06T09:38:26;100546.36;;;11.91;100.00
55277;BME280;41136;51.478;-2.610;2023-04-06T09:40:51;100551.43;;;11.78;100.00
55277;BME280;41136;51.478;-2.610;2023-04-06T09:43:23;100550.70;;;12.76;100.00
55277;BME280;41136;51.478;-2.610;2023-04-06T09:45:42;100552.05;;;12.41;100.00
55277;BME280;41136;51.478;-2.610;2023-04-06T09:48:07;100557.10;;;12.71;100.00
55277;BME280;41136;51.478;-2.610;2023-04-06T09:50:33;100553.55;;;13.20;100.00
55277;BME280;41136;51.478;-2.610;2023-04-06T09:53:00;100560.00;;;12.50;100.00
55277;BME280;41136;51.478;-2.610;2023-04-06T09:55:30;100560.32;;;12.46;100.00
55277;BME280;41136;51.478;-2.610;2023-04-06T09:57:55;100556.66;;;12.29;100.00
55277;BME280;41136;51.478;-2.610;2023-04-06T10:00:17;100559.79;;;12.89;100.00
55277;BME280;41136;51.478;-2.610;2023-04-06T10:02:45;100559.89;;;12.51;100.00
55277;BME280;41136;51.478;-2.610;2023-04-06T10:05:09;100564.10;;;12.22;100.00
55277;BME280;41136;51.478;-2.610;2023-04-06T10:07:32;100563.34;;;12.07;100.00
55277;BME280;41136;51.478;-2.610;2023-04-06T10:09:57;100569.68;;;12.81;100.00
55277;BME280;41136;51.478;-2.610;2023-04-06T10:12:22;100565.85;;;12.68;100.00
55277;BME280;41136;51.478;-2.610;2023-04-06T10:14:48;100567.54;;;12.22;100.00
55277;BME280;41136;51.478;-2.610;2023-04-06T10:17:12;100566.11;;;13.10;100.00
55277;BME280;41136;51.478;-2.610;2023-04-06T10:19:49;100566.70;;;12.06;100.00
55277;BME280;41136;51.478;-2.610;2023-04-06T10:22:05;100566.46;;;12.09;100.00
55277;BME280;41136;51.478;-2.610;2023-04-06T10:24:29;100570.66;;;12.52;100.00
55277;BME280;41136;51.478;-2.610;2023-04-06T10:26:58;100574.37;;;12.82;100.00
55277;BME280;41136;51.478;-2.610;2023-04-06T10:29:21;100571.52;;;12.31;100.00
55277;BME280;41136;51.478;-2.610;2023-04-06T10:31:45;100571.46;;;12.43;100.00
55277;BME280;41136;51.478;-2.610;2023-04-06T10:34:10;100570.08;;;12.62;100.00
55277;BME280;41136;51.478;-2.610;2023-04-06T10:36:36;100569.05;;;13.38;100.00
55277;BME280;41136;51.478;-2.610;2023-04-06T10:39:02;100567.16;;;12.97;100.00
55277;BME280;41136;51.478;-2.610;2023-04-06T10:41:33;100566.16;;;12.39;100.00
55277;BME280;41136;51.478;-2.610;2023-04-06T10:43:56;100572.17;;;12.32;100.00
55277;BME280;41136;51.478;-2.610;2023-04-06T10:46:24;100571.56;;;12.51;100.00
55277;BME280;41136;51.478;-2.610;2023-04-06T10:48:44;100577.57;;;12.63;100.00
55277;BME280;41136;51.478;-2.610;2023-04-06T10:51:10;100590.41;;;11.37;100.00
55277;BME280;41136;51.478;-2.610;2023-04-06T10:53:34;100603.94;;;10.84;100.00
55277;BME280;41136;51.478;-2.610;2023-04-06T10:55:59;100610.05;;;10.52;100.00
55277;BME280;41136;51.478;-2.610;2023-04-06T10:58:26;100604.80;;;9.97;100.00
55277;BME280;41136;51.478;-2.610;2023-04-06T11:00:51;100599.00;;;10.37;100.00
55277;BME280;41136;51.478;-2.610;2023-04-06T11:03:16;100603.31;;;10.81;100.00
55277;BME280;41136;51.478;-2.610;2023-04-06T11:05:44;100602.76;;;10.54;100.00
55277;BME280;41136;51.478;-2.610;2023-04-06T11:08:07;100599.15;;;10.83;100.00
55277;BME280;41136;51.478;-2.610;2023-04-06T11:10:32;100591.97;;;11.24;100.00
55277;BME280;41136;51.478;-2.610;2023-04-06T11:12:57;100593.56;;;11.15;100.00
55277;BME280;41136;51.478;-2.610;2023-04-06T11:15:22;100590.82;;;10.71;100.00
55277;BME280;41136;51.478;-2.610;2023-04-06T11:17:48;100595.24;;;10.21;100.00
55277;BME280;41136;51.478;-2.610;2023-04-06T11:20:13;100593.04;;;10.62;100.00
55277;BME280;41136;51.478;-2.610;2023-04-06T11:22:47;100596.85;;;10.59;100.00
55277;BME280;41136;51.478;-2.610;2023-04-06T11:25:05;100591.32;;;11.16;100.00
55277;BME280;41136;51.478;-2.610;2023-04-06T11:27:29;100596.05;;;11.26;100.00
55277;BME280;41136;51.478;-2.610;2023-04-06T11:29:54;100593.67;;;11.42;100.00
55277;BME280;41136;51.478;-2.610;2023-04-06T11:32:21;100590.71;;;11.52;100.00
55277;BME280;41136;51.478;-2.610;2023-04-06T11:34:47;100590.92;;;11.10;100.00
55277;BME280;41136;51.478;-2.610;2023-04-06T11:37:11;100596.13;;;10.80;100.00
55277;BME280;41136;51.478;-2.610;2023-04-06T11:39:38;100592.32;;;11.03;100.00
55277;BME280;41136;51.478;-2.610;2023-04-06T11:42:02;100590.68;;;11.28;100.00
55277;BME280;41136;51.478;-2.610;2023-04-06T11:44:32;100593.11;;;11.73;100.00
55277;BME280;41136;51.478;-2.610;2023-04-06T11:46:52;100591.02;;;11.73;100.00
55277;BME280;41136;51.478;-2.610;2023-04-06T11:49:18;100593.31;;;11.82;100.00
55277;BME280;41136;51.478;-2.610;2023-04-06T11:51:43;100589.46;;;11.88;100.00
55277;BME280;41136;51.478;-2.610;2023-04-06T11:54:08;100598.51;;;11.98;100.00
55277;BME280;41136;51.478;-2.610;2023-04-06T11:56:34;100597.20;;;12.05;100.00
55277;BME280;41136;51.478;-2.610;2023-04-06T11:58:59;100592.99;;;12.12;100.00
55277;BME280;41136;51.478;-2.610;2023-04-06T12:01:25;100590.23;;;11.99;100.00
55277;BME280;41136;51.478;-2.610;2023-04-06T12:03:50;100596.25;;;11.92;100.00
55277;BME280;41136;51.478;-2.610;2023-04-06T12:06:15;100589.38;;;12.20;100.00
55277;BME280;41136;51.478;-2.610;2023-04-06T12:08:40;100584.40;;;12.50;100.00
55277;BME280;41136;51.478;-2.610;2023-04-06T12:11:05;100591.00;;;11.55;100.00
55277;BME280;41136;51.478;-2.610;2023-04-06T12:13:31;100589.72;;;11.82;100.00
55277;BME280;41136;51.478;-2.610;2023-04-06T12:15:56;100590.21;;;12.01;100.00
55277;BME280;41136;51.478;-2.610;2023-04-06T12:18:21;100588.35;;;12.39;100.00
55277;BME280;41136;51.478;-2.610;2023-04-06T12:20:47;100588.32;;;12.09;100.00
55277;BME280;41136;51.478;-2.610;2023-04-06T12:23:12;100594.19;;;11.91;100.00
55277;BME280;41136;51.478;-2.610;2023-04-06T12:25:39;100597.85;;;12.58;100.00
55277;BME280;41136;51.478;-2.610;2023-04-06T12:28:03;100591.47;;;12.30;100.00
55277;BME280;41136;51.478;-2.610;2023-04-06T12:30:28;100602.57;;;12.12;100.00
55277;BME280;41136;51.478;-2.610;2023-04-06T12:32:53;100597.15;;;11.91;100.00
55277;BME280;41136;51.478;-2.610;2023-04-06T12:35:19;100607.61;;;11.94;100.00